Coeur d'Alene, ID (83814)

07:36 PM PST del 13 Febbraio 2016 (GMT -0800)
E Elm Ave | | Change Station
CLOSE
Current Station
Stazione meteo personale
Location: Coeur DAlene, ID
Altitudine: 2195 ft
Stazioni meteo nelle vicinanze

Alt. 2195 ft 47.68 °N, 116.77 °W | Updated 4 seconds ago

Pioggia
Pioggia
38.5 °F
Sembra 38 °F
N
0.0
Vento Variabile Vento da ESE
Gusts 0.0 mph

Oggi
Massima -- | Minima -- °F
--% Possibilità di precip.
Ieri
Massima -- | Minima -- °F
Precip. -- in
Pressione 30.11 in
Visibilità 10.0 miglia
Nuvole Alcuni 1700 ft
Molto nuvoloso 2400 ft
Coperto 3100 ft
Raffreddamento del vento 38 °F
Punto di rugiada 34 °F
Umidità 84%
Piovosità 0.05 in
Spessore del manto nevoso Non disponibile.
6:56 AM 5:06 PM
Luna crescente, 37% visible
METAR KCOE 140315Z AUTO 17007KT 030V200 10SM FEW017 BKN024 OVC031 03/01 A3011 RMK AO1 P0001
Pressione 30.11 in
Visibilità 10.0 miglia
Nuvole Alcuni 1700 ft
Molto nuvoloso 2400 ft
Coperto 3100 ft
Raffreddamento del vento 38 °F
Punto di rugiada 34 °F
Umidità 84%
Piovosità 0.05 in
Spessore del manto nevoso Non disponibile.
6:56 AM 5:06 PM
Luna crescente, 37% visible
METAR KCOE 140315Z AUTO 17007KT 030V200 10SM FEW017 BKN024 OVC031 03/01 A3011 RMK AO1 P0001

10-Day Weather Forecast

Almanac

Astronomia

Feb. 13, 2016 Alba Tramonto
Ora attuale
Crepuscolo civile
Crepuscolo nautico
Crepuscolo astronomico
Luna
Estensione della luce visibile
Lunghezza del giorno
Tomorrow will be .
, % of the Moon is Illuminated

Gli estremi di oggi

State Highs State Lows

Community

WunderPhotos

Upload Photos

1,892,738 foto caricate!

WunderBlog® & News

Nearby

Qualità dell'aria

  Qualità dell'aria Indice AQ Inquinante
Not available.

Profondità neve

Stazione Profondità Altitudine

Attività sismica

Città  Distanza Mag. Data & Ora
Minimo Magnitudo Mostrato è 2.5.

Temperature delle acque costiere

Località Temperatura

Stations

Stazioni meteo nelle vicinanze

Ubicazione della stazione Temp. Raffreddamento del vento Punto di rugiada Umidità Vento Precip. Alt. Aggiornato Tipo
                   

Watches & Warnings

There are currently no watches in effect.